Time;durP1;ratioP1;P1;durP2;ratioP2;P2;SDS_P1;SDS_P2;PMS_P1;PMS_P2;Temp;Humidity;BMP_temperature;BMP_pressure;BME280_temperature;BME280_humidity;BME280_pressure;Samples;Min_cycle;Max_cycle;Signal;HPM_P1;HPM_P2
2022/03/10 00:00:44;;;;;;;33.72;22.80;;;;;;;-0.12;100.00;101257.34;5074491;28;20048;-62
2022/03/10 00:03:09;;;;;;;33.35;21.48;;;;;;;-0.13;100.00;101260.75;5074261;28;20032;-62
2022/03/10 00:05:34;;;;;;;30.63;21.98;;;;;;;-0.16;100.00;101258.16;5072395;28;20061;-63
2022/03/10 00:08:00;;;;;;;36.00;22.67;;;;;;;-0.19;100.00;101260.72;5073750;28;20063;-62
2022/03/10 00:10:25;;;;;;;33.70;22.20;;;;;;;-0.22;100.00;101258.13;5074727;28;20028;-62
2022/03/10 00:12:52;;;;;;;31.63;23.23;;;;;;;-0.24;100.00;101262.41;5073676;28;20031;-62
2022/03/10 00:15:20;;;;;;;39.83;24.02;;;;;;;-0.23;100.00;101258.09;5088142;28;20108;-62
2022/03/10 00:17:45;;;;;;;36.72;24.13;;;;;;;-0.23;100.00;101263.25;5073673;28;20078;-63
2022/03/10 00:20:11;;;;;;;32.30;22.33;;;;;;;-0.24;100.00;101256.38;5073682;28;20036;-63
2022/03/10 00:22:48;;;;;;;33.88;22.88;;;;;;;-0.28;100.00;101264.97;5074478;28;20024;-62
2022/03/10 00:25:14;;;;;;;35.90;21.42;;;;;;;-0.34;100.00;101255.47;5073720;28;20024;-63
2022/03/10 00:27:39;;;;;;;37.90;22.52;;;;;;;-0.31;100.00;101255.47;5089882;28;20024;-63
2022/03/10 00:30:05;;;;;;;35.00;24.85;;;;;;;-0.28;100.00;101257.22;5074067;28;20028;-63
2022/03/10 00:32:31;;;;;;;32.58;24.23;;;;;;;-0.21;100.00;101265.03;5074159;28;20082;-62
2022/03/10 00:34:56;;;;;;;39.88;24.17;;;;;;;-0.22;100.00;101265.88;5073687;28;20017;-62
2022/03/10 00:37:21;;;;;;;42.05;24.63;;;;;;;-0.19;100.00;101270.19;5073565;28;20063;-63
2022/03/10 00:39:47;;;;;;;34.25;24.75;;;;;;;-0.17;100.00;101265.91;5089579;28;20021;-63
2022/03/10 00:42:12;;;;;;;34.25;24.20;;;;;;;-0.37;100.00;101233.91;5073547;28;20364;-63
2022/03/10 00:44:37;;;;;;;32.70;24.40;;;;;;;-0.21;100.00;101271.91;5073752;28;20052;-63
2022/03/10 00:47:03;;;;;;;38.08;25.05;;;;;;;-0.29;100.00;101256.34;5073840;28;20033;-63
2022/03/10 00:49:28;;;;;;;31.10;23.17;;;;;;;-0.30;100.00;101266.66;5073673;28;20074;-63
2022/03/10 00:51:54;;;;;;;38.58;25.58;;;;;;;-0.33;100.00;101276.94;5073665;28;20155;-63
2022/03/10 00:54:19;;;;;;;33.55;23.65;;;;;;;-0.37;100.00;101273.47;5073426;28;20012;-63
2022/03/10 00:56:44;;;;;;;39.42;23.40;;;;;;;-0.38;100.00;101274.34;5055500;28;20067;-63
2022/03/10 00:59:10;;;;;;;36.38;23.50;;;;;;;-0.56;100.00;101246.66;5073505;28;20408;-63
2022/03/10 01:01:35;;;;;;;36.72;23.33;;;;;;;-0.43;100.00;101272.56;5055098;28;20206;-63
2022/03/10 01:04:00;;;;;;;38.08;24.65;;;;;;;-0.47;100.00;101269.09;5073212;28;20025;-63
2022/03/10 01:06:26;;;;;;;35.60;23.92;;;;;;;-0.46;100.00;101278.56;5072692;28;20024;-63
2022/03/10 01:08:51;;;;;;;33.75;23.88;;;;;;;-0.49;100.00;101286.28;5073126;28;20027;-63
2022/03/10 01:11:16;;;;;;;34.78;23.98;;;;;;;-0.52;100.00;101291.44;5071572;28;20531;-63
2022/03/10 01:13:42;;;;;;;35.75;23.70;;;;;;;-0.53;100.00;101281.94;5073060;28;20024;-63
2022/03/10 01:16:07;;;;;;;37.63;25.67;;;;;;;-0.55;100.00;101283.66;5073223;28;20167;-63
2022/03/10 01:18:32;;;;;;;32.33;23.58;;;;;;;-0.55;100.00;101275.91;5072043;28;20375;-63
2022/03/10 01:20:58;;;;;;;38.97;25.70;;;;;;;-0.57;100.00;101278.47;5088671;28;20076;-63
2022/03/10 01:23:23;;;;;;;36.45;26.38;;;;;;;-0.52;100.00;101275.94;5072940;28;20034;-63
2022/03/10 01:25:48;;;;;;;39.13;25.45;;;;;;;-0.53;100.00;101269.03;5071773;28;20074;-63
2022/03/10 01:28:14;;;;;;;38.95;25.67;;;;;;;-0.59;100.00;101269.00;5068288;28;20876;-63
2022/03/10 01:30:39;;;;;;;38.75;25.88;;;;;;;-0.62;100.00;101268.97;5072343;28;20021;-62
2022/03/10 01:33:04;;;;;;;35.13;24.55;;;;;;;-0.66;100.00;101262.03;5066419;28;20020;-62
2022/03/10 01:35:30;;;;;;;35.55;23.90;;;;;;;-0.68;100.00;101269.78;5072761;28;20025;-62
2022/03/10 01:37:55;;;;;;;40.42;24.67;;;;;;;-0.73;100.00;101268.00;5072307;28;20028;-62
2022/03/10 01:40:21;;;;;;;38.55;26.27;;;;;;;-0.77;100.00;101258.50;5072605;28;20497;-62
2022/03/10 01:42:49;;;;;;;34.10;23.58;;;;;;;-0.77;100.00;101263.66;5072363;28;20095;-62
2022/03/10 01:45:15;;;;;;;37.70;25.67;;;;;;;-0.82;100.00;101258.47;5087646;28;20037;-62
2022/03/10 01:47:41;;;;;;;39.85;24.60;;;;;;;-0.82;100.00;101255.03;5071327;28;20054;-62
2022/03/10 01:50:08;;;;;;;44.50;25.23;;;;;;;-0.82;100.00;101260.19;5069559;28;20490;-62
2022/03/10 01:52:33;;;;;;;37.88;26.30;;;;;;;-0.82;100.00;101257.59;5072505;28;20024;-63
2022/03/10 01:54:58;;;;;;;37.00;24.80;;;;;;;-0.85;100.00;101252.41;5072158;28;20463;-63
2022/03/10 01:57:25;;;;;;;42.95;26.08;;;;;;;-0.84;100.00;101256.69;5072289;28;20048;-63
2022/03/10 01:59:50;;;;;;;37.65;24.73;;;;;;;-0.85;100.00;101260.16;5072534;28;20035;-62
2022/03/10 02:02:16;;;;;;;43.72;25.90;;;;;;;-0.94;100.00;101244.56;5072635;28;20033;-62
2022/03/10 02:04:41;;;;;;;37.75;26.05;;;;;;;-0.93;100.00;101256.63;5071603;28;20016;-62
2022/03/10 02:10:16;;;;;;;40.92;26.00;;;;;;;-0.97;100.00;101252.28;5066500;28;20470;-62
2022/03/10 02:12:41;;;;;;;42.92;26.05;;;;;;;-1.05;100.00;101250.47;5071248;28;20052;-63
2022/03/10 02:18:01;;;;;;;38.55;24.88;;;;;;;-1.13;100.00;101249.56;5057754;28;20102;-63
2022/03/10 02:20:27;;;;;;;40.80;25.70;;;;;;;-1.14;100.00;101246.94;5072176;28;20017;-63
2022/03/10 02:22:53;;;;;;;36.47;26.00;;;;;;;-1.13;100.00;101246.97;5072021;28;20028;-63
2022/03/10 02:25:21;;;;;;;44.25;28.15;;;;;;;-1.08;100.00;101245.28;5086636;28;20478;-63
2022/03/10 02:27:51;;;;;;;45.72;26.38;;;;;;;-1.11;100.00;101242.69;5072423;28;20107;-63
2022/03/10 02:30:18;;;;;;;44.85;26.67;;;;;;;-1.12;100.00;101246.13;5074140;28;20027;-63
2022/03/10 02:32:43;;;;;;;43.03;26.02;;;;;;;-1.18;100.00;101246.03;5076087;28;20043;-63
2022/03/10 02:35:08;;;;;;;33.50;23.50;;;;;;;-1.21;100.00;101248.59;5076445;28;20028;-63
2022/03/10 02:37:34;;;;;;;39.33;25.25;;;;;;;-1.25;100.00;101249.41;5076576;28;20458;-63
2022/03/10 02:39:59;;;;;;;38.30;25.67;;;;;;;-1.25;100.00;101245.97;5076176;28;20472;-63
2022/03/10 02:42:25;;;;;;;44.03;28.10;;;;;;;-1.27;100.00;101233.06;5075694;28;20021;-63
2022/03/10 02:44:50;;;;;;;42.40;27.45;;;;;;;-1.18;100.00;101238.31;5075890;28;20029;-62
2022/03/10 02:47:17;;;;;;;37.90;25.63;;;;;;;-1.16;100.00;101239.22;5076045;28;20048;-63
2022/03/10 02:49:43;;;;;;;40.83;25.75;;;;;;;-1.21;100.00;101233.13;5074434;28;20390;-63
2022/03/10 02:52:09;;;;;;;39.58;26.58;;;;;;;-1.23;100.00;101236.53;5075898;28;20020;-63
2022/03/10 02:54:34;;;;;;;38.72;25.95;;;;;;;-1.27;100.00;101235.66;5075695;28;20083;-63
2022/03/10 02:57:00;;;;;;;40.70;26.80;;;;;;;-1.30;100.00;101243.34;5075868;28;20075;-63
2022/03/10 02:59:26;;;;;;;42.80;25.67;;;;;;;-1.31;100.00;101240.72;5075583;28;20025;-63
2022/03/10 03:01:51;;;;;;;34.38;24.35;;;;;;;-1.39;100.00;101245.81;5075689;28;20035;-63
2022/03/10 03:04:16;;;;;;;42.35;25.95;;;;;;;-1.42;100.00;101240.59;5075695;28;20109;-64
2022/03/10 03:06:42;;;;;;;43.17;27.10;;;;;;;-1.44;100.00;101238.88;5075554;28;20024;-64
2022/03/10 03:09:07;;;;;;;39.50;27.60;;;;;;;-1.50;100.00;101239.66;5073085;28;20418;-63
2022/03/10 03:11:33;;;;;;;40.15;25.88;;;;;;;-1.49;100.00;101249.13;5075271;28;20032;-64
2022/03/10 03:13:59;;;;;;;35.28;25.58;;;;;;;-1.49;100.00;101248.28;5075456;28;20020;-64
2022/03/10 03:16:25;;;;;;;40.55;26.23;;;;;;;-1.54;100.00;101253.34;5089765;28;20024;-63
2022/03/10 03:18:51;;;;;;;42.58;24.77;;;;;;;-1.58;100.00;101247.28;5072183;28;20035;-63
2022/03/10 03:21:17;;;;;;;42.03;24.92;;;;;;;-1.60;100.00;101251.56;5090334;28;20036;-63
2022/03/10 03:23:43;;;;;;;37.47;25.23;;;;;;;-1.61;100.00;101251.53;5074223;28;20024;-64
2022/03/10 03:26:08;;;;;;;43.35;25.40;;;;;;;-1.64;100.00;101251.50;5090830;28;20433;-63
2022/03/10 03:28:34;;;;;;;37.83;27.33;;;;;;;-1.58;100.00;101257.59;5072725;28;20877;-63
2022/03/10 03:30:59;;;;;;;41.97;26.00;;;;;;;-1.57;100.00;101255.91;5074913;28;20127;-63
2022/03/10 03:33:24;;;;;;;43.00;26.63;;;;;;;-1.58;100.00;101254.16;5074875;28;20032;-63
2022/03/10 03:35:50;;;;;;;39.10;25.83;;;;;;;-1.64;100.00;101238.63;5074887;28;20061;-63
2022/03/10 03:38:15;;;;;;;41.33;26.30;;;;;;;-1.60;100.00;101251.56;5073235;28;20028;-63
2022/03/10 03:40:40;;;;;;;39.80;26.48;;;;;;;-1.59;100.00;101255.03;5074258;28;20159;-63
2022/03/10 03:43:06;;;;;;;42.97;27.60;;;;;;;-1.62;100.00;101249.81;5073991;28;20051;-63
2022/03/10 03:45:31;;;;;;;38.15;26.45;;;;;;;-1.66;100.00;101238.63;5072563;28;20423;-63
2022/03/10 03:47:57;;;;;;;41.47;27.10;;;;;;;-1.61;100.00;101247.25;5074434;28;20054;-63
2022/03/10 03:50:22;;;;;;;40.70;27.63;;;;;;;-1.64;100.00;101246.34;5074123;28;20411;-63
2022/03/10 03:52:47;;;;;;;36.05;24.00;;;;;;;-1.70;100.00;101249.72;5073680;28;20030;-63
2022/03/10 03:55:13;;;;;;;40.38;26.00;;;;;;;-1.73;100.00;101253.97;5074837;28;20107;-63
2022/03/10 03:57:39;;;;;;;39.80;26.17;;;;;;;-1.76;100.00;101251.38;5074502;28;20076;-63
2022/03/10 04:00:07;;;;;;;40.33;26.75;;;;;;;-1.78;100.00;101256.47;5072604;28;20035;-64
2022/03/10 04:02:32;;;;;;;40.25;26.88;;;;;;;-1.74;100.00;101262.53;5056723;28;20032;-64
2022/03/10 04:04:58;;;;;;;48.40;28.75;;;;;;;-1.73;100.00;101260.00;5074609;28;20033;-63
2022/03/10 04:07:23;;;;;;;41.22;25.40;;;;;;;-1.70;100.00;101269.47;5074403;28;20075;-63
2022/03/10 04:09:49;;;;;;;38.22;26.13;;;;;;;-1.81;100.00;101255.56;5074430;28;20031;-63
2022/03/10 04:12:14;;;;;;;36.50;25.88;;;;;;;-1.77;100.00;101265.94;5055620;28;20107;-63
2022/03/10 04:14:39;;;;;;;40.00;26.35;;;;;;;-1.80;100.00;101267.59;5071457;28;20016;-63
2022/03/10 04:17:05;;;;;;;37.45;25.25;;;;;;;-1.82;100.00;101274.44;5074361;28;20471;-63
2022/03/10 04:19:30;;;;;;;39.17;24.77;;;;;;;-1.83;100.00;101267.56;5074378;28;20066;-64
2022/03/10 04:21:55;;;;;;;44.70;26.45;;;;;;;-1.83;100.00;101272.72;5074007;28;20455;-64
2022/03/10 04:24:21;;;;;;;42.00;25.73;;;;;;;-1.83;100.00;101277.88;5073062;28;20127;-64
2022/03/10 04:26:46;;;;;;;39.97;27.23;;;;;;;-1.85;100.00;101279.53;5072468;28;20063;-63
2022/03/10 04:29:13;;;;;;;38.92;25.52;;;;;;;-1.88;100.00;101279.50;5073838;28;20021;-63
2022/03/10 04:31:39;;;;;;;42.75;25.90;;;;;;;-1.95;100.00;101272.53;5074101;28;20028;-63
2022/03/10 04:34:05;;;;;;;40.42;26.80;;;;;;;-2.02;100.00;101265.56;5073700;28;20066;-63
2022/03/10 04:36:30;;;;;;;37.45;25.52;;;;;;;-2.01;100.00;101282.75;5073723;28;20066;-63
2022/03/10 04:38:55;;;;;;;39.47;27.40;;;;;;;-2.06;100.00;101280.97;5073754;28;20052;-63
2022/03/10 04:41:21;;;;;;;47.58;28.20;;;;;;;-2.04;100.00;101293.00;5073636;28;20032;-63
2022/03/10 04:43:46;;;;;;;39.92;25.70;;;;;;;-2.03;100.00;101294.75;5073619;28;20020;-63
2022/03/10 04:46:11;;;;;;;38.97;25.73;;;;;;;-2.07;100.00;101280.97;5073627;28;20024;-63
2022/03/10 04:48:37;;;;;;;39.10;26.92;;;;;;;-2.03;100.00;101285.31;5073417;28;20021;-63
2022/03/10 04:51:02;;;;;;;41.95;26.90;;;;;;;-2.06;100.00;101280.97;5073429;28;20020;-63
2022/03/10 04:53:27;;;;;;;38.67;24.70;;;;;;;-2.11;100.00;101292.91;5074016;28;20024;-63
2022/03/10 04:55:53;;;;;;;46.42;26.80;;;;;;;-2.22;100.00;101275.56;5073463;28;20033;-63
2022/03/10 04:58:18;;;;;;;42.53;26.90;;;;;;;-2.20;100.00;101285.03;5070323;28;20052;-63
2022/03/10 05:00:44;;;;;;;40.47;26.60;;;;;;;-2.18;100.00;101285.94;5073127;28;20027;-63
2022/03/10 05:03:09;;;;;;;42.25;27.20;;;;;;;-2.19;100.00;101284.19;5088322;28;20025;-63
2022/03/10 05:05:35;;;;;;;47.72;27.30;;;;;;;-2.19;100.00;101288.47;5071927;28;20072;-64
2022/03/10 05:08:00;;;;;;;39.55;26.45;;;;;;;-2.19;100.00;101284.19;5071757;28;20028;-63
2022/03/10 05:10:27;;;;;;;45.08;27.60;;;;;;;-2.20;100.00;101286.75;5073521;28;20613;-63
2022/03/10 05:12:57;;;;;;;41.33;25.38;;;;;;;-2.31;100.00;101273.72;5072169;28;20039;-63
2022/03/10 05:15:23;;;;;;;43.80;26.13;;;;;;;-2.26;100.00;101282.38;5073439;28;20039;-63
2022/03/10 05:17:50;;;;;;;46.70;26.70;;;;;;;-2.28;100.00;101290.91;5068804;28;20020;-63
2022/03/10 05:20:16;;;;;;;37.88;25.40;;;;;;;-2.26;100.00;101297.81;5088773;28;20034;-63
2022/03/10 05:22:49;;;;;;;44.80;26.05;;;;;;;-2.31;100.00;101299.47;5072081;28;20115;-63
2022/03/10 05:25:15;;;;;;;44.63;26.43;;;;;;;-2.34;100.00;101296.84;5054699;28;20032;-63
2022/03/10 05:27:42;;;;;;;43.45;27.33;;;;;;;-2.35;100.00;101292.53;5072313;28;20054;-63
2022/03/10 05:30:08;;;;;;;41.55;25.88;;;;;;;-2.43;100.00;101299.22;5073009;28;20021;-63
2022/03/10 05:32:34;;;;;;;39.40;26.90;;;;;;;-2.49;100.00;101287.97;5073174;28;20032;-63
2022/03/10 05:35:03;;;;;;;40.80;25.33;;;;;;;-2.43;100.00;101306.94;5072996;28;20044;-63
2022/03/10 05:37:29;;;;;;;46.75;27.15;;;;;;;-2.43;100.00;101290.69;5055770;28;20028;-63
2022/03/10 05:39:54;;;;;;;40.95;25.83;;;;;;;-2.42;100.00;101300.97;5077190;28;20083;-64
2022/03/10 05:42:20;;;;;;;47.10;26.83;;;;;;;-2.42;100.00;101303.53;5072860;28;20100;-62
2022/03/10 05:44:45;;;;;;;45.72;26.20;;;;;;;-2.44;100.00;101304.38;5072570;28;20054;-63
2022/03/10 05:47:10;;;;;;;40.05;25.65;;;;;;;-2.46;100.00;101301.75;5072576;28;20108;-65
2022/03/10 05:49:36;;;;;;;43.33;28.20;;;;;;;-2.48;100.00;101300.88;5072678;28;20040;-62
2022/03/10 05:52:03;;;;;;;39.85;26.95;;;;;;;-2.49;100.00;101299.13;5054476;28;20020;-62
2022/03/10 05:54:28;;;;;;;42.55;26.80;;;;;;;-2.50;100.00;101291.41;5071405;28;20090;-62
2022/03/10 05:56:53;;;;;;;41.25;28.20;;;;;;;-2.46;100.00;101298.31;5072580;28;20024;-62
2022/03/10 05:59:19;;;;;;;50.67;28.73;;;;;;;-2.45;100.00;101297.47;5071011;28;20024;-62
2022/03/10 06:01:49;;;;;;;41.72;28.10;;;;;;;-2.46;100.00;101294.03;5072476;28;20028;-63
2022/03/10 06:04:14;;;;;;;44.97;25.48;;;;;;;-2.48;100.00;101298.31;5072742;28;20024;-64
2022/03/10 06:06:40;;;;;;;41.53;26.48;;;;;;;-2.47;100.00;101300.06;5076709;28;20040;-63
2022/03/10 06:09:05;;;;;;;45.65;27.88;;;;;;;-2.50;100.00;101287.09;5076807;28;20028;-63
2022/03/10 06:11:31;;;;;;;42.72;28.00;;;;;;;-2.47;100.00;101292.34;5076336;28;20024;-63
2022/03/10 06:13:56;;;;;;;55.13;29.73;;;;;;;-2.39;100.00;101303.59;5076565;28;20371;-63
2022/03/10 06:16:21;;;;;;;44.95;28.05;;;;;;;-2.39;100.00;101301.03;5076669;28;20493;-63
2022/03/10 06:18:47;;;;;;;42.60;27.80;;;;;;;-2.39;100.00;101301.03;5092251;28;20036;-63
2022/03/10 06:21:12;;;;;;;46.97;27.42;;;;;;;-2.38;100.00;101307.91;5076697;28;20017;-63
2022/03/10 06:23:38;;;;;;;46.60;28.65;;;;;;;-2.41;100.00;101300.16;5075689;28;20083;-64
2022/03/10 06:26:03;;;;;;;43.78;27.67;;;;;;;-2.43;100.00;101299.22;5076388;28;20079;-63
2022/03/10 06:28:30;;;;;;;50.17;27.73;;;;;;;-2.36;100.00;101321.66;5075936;28;20437;-63
2022/03/10 06:30:55;;;;;;;41.65;27.50;;;;;;;-2.36;100.00;101311.38;5074545;28;20056;-63
2022/03/10 06:33:21;;;;;;;50.17;29.30;;;;;;;-2.32;100.00;101318.28;5076041;28;20048;-63
2022/03/10 06:35:46;;;;;;;46.30;26.50;;;;;;;-2.23;100.00;101322.75;5071722;28;20142;-63
2022/03/10 06:38:12;;;;;;;43.50;28.63;;;;;;;-2.19;100.00;101315.09;5075917;28;20017;-63
2022/03/10 06:40:37;;;;;;;47.30;30.00;;;;;;;-2.13;100.00;101309.19;5075077;28;20047;-63
2022/03/10 06:43:03;;;;;;;43.75;28.42;;;;;;;-2.06;100.00;101310.97;5076078;28;20525;-64
2022/03/10 06:45:32;;;;;;;49.60;29.08;;;;;;;-2.03;100.00;101305.91;5075614;28;20106;-63
2022/03/10 06:47:58;;;;;;;53.20;30.60;;;;;;;-1.93;100.00;101309.47;5075818;28;20032;-63
2022/03/10 06:50:24;;;;;;;45.85;31.10;;;;;;;-1.82;100.00;101310.47;5075810;28;20031;-64
2022/03/10 06:52:51;;;;;;;50.55;30.27;;;;;;;-1.73;100.00;101308.06;5091789;28;20031;-64
2022/03/10 06:55:19;;;;;;;49.72;30.00;;;;;;;-1.68;100.00;101303.81;5075666;28;20020;-63
2022/03/10 06:57:44;;;;;;;43.45;29.17;;;;;;;-1.64;100.00;101301.31;5075837;28;20024;-64
2022/03/10 07:00:10;;;;;;;44.08;28.40;;;;;;;-1.46;100.00;101308.44;5075803;28;20074;-63
2022/03/10 07:02:35;;;;;;;51.45;29.88;;;;;;;-1.36;100.00;101302.56;5067179;28;20035;-63
2022/03/10 07:05:02;;;;;;;43.33;29.23;;;;;;;-1.24;100.00;101305.28;5039304;28;20017;-63
2022/03/10 07:07:27;;;;;;;43.88;28.75;;;;;;;-1.14;100.00;101296.78;5045594;28;20036;-63
2022/03/10 07:09:52;;;;;;;48.63;28.73;;;;;;;-0.95;100.00;101312.50;5054526;28;20044;-63
2022/03/10 07:12:18;;;;;;;46.33;29.70;;;;;;;-0.83;100.00;101310.03;5052718;28;20082;-63
2022/03/10 07:14:43;;;;;;;38.40;27.77;;;;;;;-0.71;100.00;101305.03;5053294;28;20036;-64
2022/03/10 07:17:08;;;;;;;47.92;29.08;;;;;;;-0.60;100.00;101303.38;5048788;28;20116;-63
2022/03/10 07:19:34;;;;;;;41.53;26.98;;;;;;;-0.40;100.00;101314.75;5050719;28;20060;-64
2022/03/10 07:21:59;;;;;;;46.25;27.13;;;;;;;-0.23;100.00;101314.91;5047700;28;20052;-63
2022/03/10 07:24:25;;;;;;;45.50;27.00;;;;;;;-0.08;100.00;101310.75;5045999;28;20139;-64
2022/03/10 07:26:51;;;;;;;45.35;28.02;;;;;;;0.02;100.00;101303.03;5060512;28;20032;-63
2022/03/10 07:29:16;;;;;;;41.22;27.73;;;;;;;0.25;100.00;101314.41;5042844;28;20057;-64
2022/03/10 07:31:42;;;;;;;37.80;26.48;;;;;;;0.42;100.00;101317.94;5050332;28;20032;-63
2022/03/10 07:34:07;;;;;;;41.05;26.60;;;;;;;0.61;100.00;101321.53;5066948;28;20021;-64
2022/03/10 07:36:32;;;;;;;38.97;25.08;;;;;;;0.75;100.00;101319.84;5047374;28;20036;-64
2022/03/10 07:38:58;;;;;;;37.90;24.90;;;;;;;0.95;100.00;101321.66;5050174;28;20489;-64
2022/03/10 07:41:23;;;;;;;33.83;24.35;;;;;;;1.15;100.00;101328.63;5046171;28;20041;-63
2022/03/10 07:43:49;;;;;;;37.95;24.20;;;;;;;1.30;100.00;101319.16;5050237;28;20052;-64
2022/03/10 07:46:14;;;;;;;32.70;23.02;;;;;;;1.46;100.00;101320.06;5047475;28;20032;-64
2022/03/10 07:48:39;;;;;;;31.77;21.05;;;;;;;1.68;100.00;101331.31;5045921;28;20470;-64
2022/03/10 07:51:05;;;;;;;40.20;22.58;;;;;;;1.81;100.00;101328.75;5044829;28;20172;-64
2022/03/10 07:53:30;;;;;;;36.08;22.90;;;;;;;1.93;100.00;101328.72;5043849;28;20102;-63
2022/03/10 07:55:56;;;;;;;37.75;23.10;;;;;;;2.14;100.00;101333.03;5029737;28;20042;-64
2022/03/10 07:58:25;;;;;;;36.13;21.27;;;;;;;2.32;100.00;101333.03;5044126;28;20092;-64
2022/03/10 08:00:54;;;;;;;31.85;21.27;;;;;;;2.51;100.00;101336.44;5049311;28;20036;-63
2022/03/10 08:03:21;;;;;;;34.10;21.63;;;;;;;2.68;100.00;101324.28;5040381;28;20035;-64
2022/03/10 08:05:46;;;;;;;31.70;20.98;;;;;;;2.85;100.00;101321.63;5041860;28;20071;-63
2022/03/10 08:08:13;;;;;;;42.97;20.98;;;;;;;3.08;100.00;101325.84;5039415;28;20032;-63
2022/03/10 08:10:39;;;;;;;38.83;20.67;;;;;;;3.36;100.00;101333.50;5046193;28;20132;-64
2022/03/10 08:13:05;;;;;;;36.83;23.38;;;;;;;3.64;100.00;101332.47;5048950;28;20054;-64
2022/03/10 08:15:30;;;;;;;30.75;20.63;;;;;;;3.88;100.00;101324.50;5045623;28;20549;-64
2022/03/10 08:17:55;;;;;;;30.30;19.90;;;;;;;4.07;100.00;101323.44;5047197;28;20860;-64
2022/03/10 08:20:21;;;;;;;28.13;19.33;;;;;;;4.14;100.00;101319.03;5041862;28;20032;-64
2022/03/10 08:22:46;;;;;;;28.85;18.70;;;;;;;4.27;100.00;101330.19;5043409;28;20028;-64
2022/03/10 08:25:12;;;;;;;28.20;19.85;;;;;;;4.36;100.00;101322.31;5045669;28;20025;-64
2022/03/10 08:27:37;;;;;;;31.35;18.70;;;;;;;4.48;100.00;101317.84;5045152;28;20561;-64
2022/03/10 08:30:03;;;;;;;33.05;19.92;;;;;;;4.57;100.00;101316.88;5045379;28;20036;-64
2022/03/10 08:32:29;;;;;;;29.67;20.15;;;;;;;4.73;100.00;101322.78;5042473;28;20036;-64
2022/03/10 08:34:54;;;;;;;30.48;19.42;;;;;;;4.85;100.00;101315.69;5043597;28;20139;-64
2022/03/10 08:37:20;;;;;;;26.80;19.85;;;;;;;5.02;100.00;101303.31;5042690;28;20087;-64
2022/03/10 08:39:45;;;;;;;28.80;19.98;;;;;;;5.31;100.00;101310.72;5036807;28;20035;-64
2022/03/10 08:42:10;;;;;;;29.67;19.65;;;;;;;5.55;100.00;101317.31;5038392;28;20040;-64
2022/03/10 08:44:36;;;;;;;33.88;18.67;;;;;;;5.75;100.00;101315.28;5041491;28;20083;-64
2022/03/10 08:47:01;;;;;;;26.30;17.98;;;;;;;5.91;100.00;101306.38;5040873;28;20038;-64
2022/03/10 08:49:27;;;;;;;32.92;19.85;;;;;;;6.14;100.00;101313.81;5042911;28;20482;-64
2022/03/10 08:51:52;;;;;;;23.67;17.17;;;;;;;6.30;100.00;101310.03;5045481;28;20031;-64
2022/03/10 08:54:18;;;;;;;29.10;19.75;;;;;;;6.40;100.00;101298.53;5037224;28;20139;-64
2022/03/10 08:56:43;;;;;;;23.23;17.98;;;;;;;6.44;100.00;101299.34;5034075;28;20024;-64
2022/03/10 08:59:09;;;;;;;26.83;17.80;;;;;;;6.42;100.00;101303.75;5036565;28;20044;-64
2022/03/10 09:01:34;;;;;;;25.90;17.35;;;;;;;6.40;100.00;101300.28;5034893;28;20056;-64
2022/03/10 09:03:59;;;;;;;23.70;16.73;;;;;;;6.41;100.00;101302.88;5048811;28;20909;-64
2022/03/10 09:06:25;;;;;;;25.52;16.92;;;;;;;6.39;100.00;101288.09;5038231;28;20029;-64
2022/03/10 09:08:50;;;;;;;26.67;17.00;;;;;;;6.53;100.00;101297.41;5051540;28;20746;-63
2022/03/10 09:11:16;;;;;;;25.40;16.65;;;;;;;6.66;100.00;101295.41;5053104;28;20030;-64
2022/03/10 09:13:48;;;;;;;23.55;16.95;;;;;;;6.78;100.00;101292.56;5053739;28;20033;-64
2022/03/10 09:16:14;;;;;;;25.60;17.02;;;;;;;6.93;100.00;101287.03;5048091;28;20052;-64
2022/03/10 09:18:41;;;;;;;27.10;16.92;;;;;;;7.17;100.00;101294.34;5063889;28;20032;-64
2022/03/10 09:21:07;;;;;;;24.52;16.15;;;;;;;7.38;100.00;101294.75;5049910;28;20031;-64
2022/03/10 09:23:32;;;;;;;27.08;16.45;;;;;;;7.44;100.00;101287.63;5049725;28;20072;-64
2022/03/10 09:25:57;;;;;;;23.35;16.65;;;;;;;7.55;100.00;101287.38;5064997;28;21002;-64
2022/03/10 09:28:23;;;;;;;20.58;15.55;;;;;;;7.67;100.00;101287.09;5050093;28;20032;-64
2022/03/10 09:30:48;;;;;;;25.13;16.70;;;;;;;7.77;100.00;101285.13;5049859;28;20036;-62
2022/03/10 09:33:15;;;;;;;25.73;16.13;;;;;;;7.87;100.00;101284.00;5046982;28;20186;-63
2022/03/10 09:35:40;;;;;;;19.77;14.35;;;;;;;7.98;100.00;101284.56;5046797;28;20021;-62
2022/03/10 09:38:06;;;;;;;30.63;16.63;;;;;;;8.09;100.00;101282.53;5061422;28;20848;-63
2022/03/10 09:40:31;;;;;;;24.70;16.63;;;;;;;8.19;100.00;101279.66;5046695;28;20082;-63
2022/03/10 09:42:57;;;;;;;22.25;15.60;;;;;;;8.33;100.00;101278.47;5051288;28;20024;-63
2022/03/10 09:45:29;;;;;;;20.60;15.05;;;;;;;8.45;100.00;101271.13;5052809;28;20378;-63
2022/03/10 09:47:54;;;;;;;25.08;16.42;;;;;;;8.62;100.00;101282.00;5045555;28;20017;-63
2022/03/10 09:50:20;;;;;;;29.67;16.92;;;;;;;8.77;100.00;101270.22;5039310;28;20031;-63
2022/03/10 09:52:46;;;;;;;19.33;15.52;;;;;;;8.90;100.00;101262.88;5064643;28;20139;-63
2022/03/10 09:55:14;;;;;;;22.17;16.45;;;;;;;9.02;100.00;101259.91;5044118;28;20024;-63
2022/03/10 09:57:41;;;;;;;21.08;15.18;;;;;;;9.20;100.00;101254.94;5044032;28;20044;-62
2022/03/10 10:00:08;;;;;;;39.90;17.48;;;;;;;9.46;98.79;101261.97;5047638;28;20127;-63
2022/03/10 10:02:34;;;;;;;20.00;14.85;;;;;;;9.61;100.00;101261.50;5044989;28;20039;-63
2022/03/10 10:05:00;;;;;;;25.77;16.73;;;;;;;9.78;95.86;101271.47;5039374;28;20029;-63
2022/03/10 10:07:29;;;;;;;21.30;14.95;;;;;;;9.99;94.69;101262.88;5035107;28;20032;-63
2022/03/10 10:09:57;;;;;;;22.45;15.40;;;;;;;10.08;92.76;101246.78;5050336;28;20030;-62
2022/03/10 10:12:28;;;;;;;22.52;16.20;;;;;;;10.27;92.45;101256.69;5035976;28;20096;-63
2022/03/10 10:14:54;;;;;;;21.75;16.45;;;;;;;10.39;95.71;101256.25;5036936;28;20033;-62
2022/03/10 10:17:26;;;;;;;24.65;15.40;;;;;;;10.77;88.88;101253.97;5020879;28;20024;-63
2022/03/10 10:19:55;;;;;;;20.50;13.93;;;;;;;10.94;89.49;101250.69;5037438;28;20024;-65
2022/03/10 10:22:23;;;;;;;16.08;13.38;;;;;;;11.13;87.47;101230.66;5019674;28;20035;-62
2022/03/10 10:24:59;;;;;;;18.77;13.68;;;;;;;11.58;87.80;101253.44;5033441;28;20036;-62
2022/03/10 10:27:27;;;;;;;22.20;15.13;;;;;;;11.70;85.58;101250.28;5023079;28;20029;-64
2022/03/10 10:29:54;;;;;;;23.50;15.30;;;;;;;11.73;85.21;101242.28;5034394;28;20033;-63
2022/03/10 10:32:35;;;;;;;22.23;15.05;;;;;;;11.86;84.53;101240.03;5072735;28;20086;-63
2022/03/10 10:35:05;;;;;;;24.10;14.90;;;;;;;12.02;81.75;101239.31;5071909;28;20048;-65
2022/03/10 10:37:31;;;;;;;20.85;14.43;;;;;;;12.05;81.28;101231.28;5071296;28;20067;-64
2022/03/10 10:39:58;;;;;;;24.70;13.82;;;;;;;12.08;83.03;101243.44;5071862;28;20135;-63
2022/03/10 10:42:30;;;;;;;23.50;15.60;;;;;;;12.17;81.64;101236.00;5071643;28;20103;-63
2022/03/10 10:44:58;;;;;;;22.90;15.30;;;;;;;12.16;81.60;101231.69;5071384;28;20025;-64
2022/03/10 10:47:26;;;;;;;24.08;14.57;;;;;;;12.20;80.53;101233.22;5071945;28;20050;-64
2022/03/10 10:50:05;;;;;;;19.15;14.00;;;;;;;12.26;80.73;101227.72;5087683;28;20463;-63
2022/03/10 10:52:40;;;;;;;17.90;14.27;;;;;;;12.34;80.86;101229.13;5075085;28;20035;-63
2022/03/10 10:55:13;;;;;;;17.85;13.88;;;;;;;12.42;80.45;101224.41;5075386;28;20027;-64
2022/03/10 10:57:39;;;;;;;20.30;14.50;;;;;;;12.46;79.81;101208.38;5090946;28;20103;-63
2022/03/10 11:00:10;;;;;;;17.55;13.18;;;;;;;12.72;81.75;101210.69;5075224;28;20046;-64
2022/03/10 11:02:40;;;;;;;23.13;13.98;;;;;;;13.03;80.61;101212.75;5074989;28;20024;-64
2022/03/10 11:05:08;;;;;;;24.95;13.40;;;;;;;13.28;79.11;101204.56;5075684;28;20103;-63